sensor_id;sensor_type;location;lat;lon;timestamp;P1;durP1;ratioP1;P2;durP2;ratioP2
11113;SDS011;5610;52.154;9.198;2023-05-07T00:02:10;27.37;;;24.67;;
11113;SDS011;5610;52.154;9.198;2023-05-07T00:04:55;28.40;;;25.50;;
11113;SDS011;5610;52.154;9.198;2023-05-07T00:07:40;27.57;;;24.77;;
11113;SDS011;5610;52.154;9.198;2023-05-07T00:10:26;27.40;;;24.60;;
11113;SDS011;5610;52.154;9.198;2023-05-07T00:13:11;28.13;;;25.20;;
11113;SDS011;5610;52.154;9.198;2023-05-07T00:15:58;26.53;;;23.80;;
11113;SDS011;5610;52.154;9.198;2023-05-07T00:18:43;26.47;;;23.67;;
11113;SDS011;5610;52.154;9.198;2023-05-07T00:21:28;28.40;;;25.70;;
11113;SDS011;5610;52.154;9.198;2023-05-07T00:24:14;29.17;;;26.10;;
11113;SDS011;5610;52.154;9.198;2023-05-07T00:26:59;26.87;;;24.13;;
11113;SDS011;5610;52.154;9.198;2023-05-07T00:29:44;28.57;;;25.50;;
11113;SDS011;5610;52.154;9.198;2023-05-07T00:32:31;27.43;;;24.63;;
11113;SDS011;5610;52.154;9.198;2023-05-07T00:35:16;25.77;;;23.27;;
11113;SDS011;5610;52.154;9.198;2023-05-07T00:38:01;27.83;;;25.13;;
11113;SDS011;5610;52.154;9.198;2023-05-07T00:40:47;28.33;;;25.27;;
11113;SDS011;5610;52.154;9.198;2023-05-07T00:43:32;26.83;;;24.03;;
11113;SDS011;5610;52.154;9.198;2023-05-07T00:46:18;26.90;;;24.03;;
11113;SDS011;5610;52.154;9.198;2023-05-07T00:49:06;28.10;;;25.20;;
11113;SDS011;5610;52.154;9.198;2023-05-07T00:51:52;26.70;;;24.00;;
11113;SDS011;5610;52.154;9.198;2023-05-07T00:54:37;27.07;;;24.07;;
11113;SDS011;5610;52.154;9.198;2023-05-07T00:57:23;26.43;;;23.83;;
11113;SDS011;5610;52.154;9.198;2023-05-07T01:00:09;27.90;;;24.97;;
11113;SDS011;5610;52.154;9.198;2023-05-07T01:02:56;27.73;;;25.03;;
11113;SDS011;5610;52.154;9.198;2023-05-07T01:05:43;27.10;;;24.47;;
11113;SDS011;5610;52.154;9.198;2023-05-07T01:08:31;27.47;;;24.67;;
11113;SDS011;5610;52.154;9.198;2023-05-07T01:11:18;28.47;;;25.47;;
11113;SDS011;5610;52.154;9.198;2023-05-07T01:14:05;29.03;;;25.77;;
11113;SDS011;5610;52.154;9.198;2023-05-07T01:16:51;27.63;;;24.97;;
11113;SDS011;5610;52.154;9.198;2023-05-07T01:19:38;27.93;;;25.00;;
11113;SDS011;5610;52.154;9.198;2023-05-07T01:22:28;27.67;;;24.67;;
11113;SDS011;5610;52.154;9.198;2023-05-07T01:25:16;29.10;;;26.20;;
11113;SDS011;5610;52.154;9.198;2023-05-07T01:28:06;27.87;;;25.17;;
11113;SDS011;5610;52.154;9.198;2023-05-07T01:30:56;28.67;;;25.60;;
11113;SDS011;5610;52.154;9.198;2023-05-07T01:33:46;29.23;;;26.33;;
11113;SDS011;5610;52.154;9.198;2023-05-07T01:36:34;28.83;;;25.93;;
11113;SDS011;5610;52.154;9.198;2023-05-07T01:39:24;30.27;;;27.07;;
11113;SDS011;5610;52.154;9.198;2023-05-07T01:42:11;28.57;;;25.60;;
11113;SDS011;5610;52.154;9.198;2023-05-07T01:44:57;30.77;;;27.67;;
11113;SDS011;5610;52.154;9.198;2023-05-07T01:47:42;30.60;;;27.73;;
11113;SDS011;5610;52.154;9.198;2023-05-07T01:50:29;30.07;;;27.07;;
11113;SDS011;5610;52.154;9.198;2023-05-07T01:53:15;30.83;;;27.73;;
11113;SDS011;5610;52.154;9.198;2023-05-07T01:56:02;30.50;;;27.30;;
11113;SDS011;5610;52.154;9.198;2023-05-07T01:58:48;32.07;;;27.60;;
11113;SDS011;5610;52.154;9.198;2023-05-07T02:01:34;29.60;;;26.50;;
11113;SDS011;5610;52.154;9.198;2023-05-07T02:04:20;31.47;;;28.10;;
11113;SDS011;5610;52.154;9.198;2023-05-07T02:07:05;31.13;;;28.00;;
11113;SDS011;5610;52.154;9.198;2023-05-07T02:09:51;35.73;;;29.17;;
11113;SDS011;5610;52.154;9.198;2023-05-07T02:12:38;33.27;;;29.87;;
11113;SDS011;5610;52.154;9.198;2023-05-07T02:15:23;33.73;;;30.13;;
11113;SDS011;5610;52.154;9.198;2023-05-07T02:18:08;33.53;;;30.10;;
11113;SDS011;5610;52.154;9.198;2023-05-07T02:20:55;32.00;;;28.67;;
11113;SDS011;5610;52.154;9.198;2023-05-07T02:23:40;33.77;;;30.23;;
11113;SDS011;5610;52.154;9.198;2023-05-07T02:26:25;33.80;;;29.80;;
11113;SDS011;5610;52.154;9.198;2023-05-07T02:29:12;33.73;;;28.93;;
11113;SDS011;5610;52.154;9.198;2023-05-07T02:31:58;34.40;;;30.70;;
11113;SDS011;5610;52.154;9.198;2023-05-07T02:34:43;37.47;;;29.33;;
11113;SDS011;5610;52.154;9.198;2023-05-07T02:37:28;34.47;;;30.80;;
11113;SDS011;5610;52.154;9.198;2023-05-07T02:40:14;36.30;;;32.50;;
11113;SDS011;5610;52.154;9.198;2023-05-07T02:43:00;36.30;;;31.30;;
11113;SDS011;5610;52.154;9.198;2023-05-07T02:45:46;37.80;;;31.17;;
11113;SDS011;5610;52.154;9.198;2023-05-07T02:48:32;34.93;;;30.73;;
11113;SDS011;5610;52.154;9.198;2023-05-07T02:51:19;34.83;;;30.47;;
11113;SDS011;5610;52.154;9.198;2023-05-07T02:54:06;36.70;;;30.97;;
11113;SDS011;5610;52.154;9.198;2023-05-07T02:56:51;35.47;;;29.27;;
11113;SDS011;5610;52.154;9.198;2023-05-07T02:59:36;36.40;;;31.20;;
11113;SDS011;5610;52.154;9.198;2023-05-07T03:02:23;38.60;;;32.90;;
11113;SDS011;5610;52.154;9.198;2023-05-07T03:05:09;35.67;;;31.83;;
11113;SDS011;5610;52.154;9.198;2023-05-07T03:07:55;38.80;;;32.97;;
11113;SDS011;5610;52.154;9.198;2023-05-07T03:10:40;38.00;;;31.30;;
11113;SDS011;5610;52.154;9.198;2023-05-07T03:13:26;36.13;;;30.63;;
11113;SDS011;5610;52.154;9.198;2023-05-07T03:16:11;38.07;;;32.83;;
11113;SDS011;5610;52.154;9.198;2023-05-07T03:18:57;40.00;;;31.40;;
11113;SDS011;5610;52.154;9.198;2023-05-07T03:21:43;36.67;;;31.57;;
11113;SDS011;5610;52.154;9.198;2023-05-07T03:24:28;35.37;;;31.50;;
11113;SDS011;5610;52.154;9.198;2023-05-07T03:27:13;36.90;;;29.00;;
11113;SDS011;5610;52.154;9.198;2023-05-07T03:29:59;36.90;;;31.60;;
11113;SDS011;5610;52.154;9.198;2023-05-07T03:32:44;38.40;;;33.00;;
11113;SDS011;5610;52.154;9.198;2023-05-07T03:35:31;36.50;;;30.63;;
11113;SDS011;5610;52.154;9.198;2023-05-07T03:38:17;36.20;;;31.00;;
11113;SDS011;5610;52.154;9.198;2023-05-07T03:41:02;37.67;;;30.90;;
11113;SDS011;5610;52.154;9.198;2023-05-07T03:43:48;36.83;;;31.20;;
11113;SDS011;5610;52.154;9.198;2023-05-07T03:46:33;35.47;;;28.80;;
11113;SDS011;5610;52.154;9.198;2023-05-07T03:49:20;33.93;;;28.83;;
11113;SDS011;5610;52.154;9.198;2023-05-07T03:52:06;31.83;;;28.30;;
11113;SDS011;5610;52.154;9.198;2023-05-07T03:54:52;35.37;;;28.97;;
11113;SDS011;5610;52.154;9.198;2023-05-07T03:57:38;33.73;;;28.83;;
11113;SDS011;5610;52.154;9.198;2023-05-07T04:00:24;32.30;;;28.40;;
11113;SDS011;5610;52.154;9.198;2023-05-07T04:03:09;31.30;;;26.93;;
11113;SDS011;5610;52.154;9.198;2023-05-07T04:05:55;33.90;;;28.00;;
11113;SDS011;5610;52.154;9.198;2023-05-07T04:08:41;33.73;;;25.87;;
11113;SDS011;5610;52.154;9.198;2023-05-07T04:11:27;34.40;;;27.80;;
11113;SDS011;5610;52.154;9.198;2023-05-07T04:14:13;30.30;;;26.90;;
11113;SDS011;5610;52.154;9.198;2023-05-07T04:16:58;29.97;;;26.17;;
11113;SDS011;5610;52.154;9.198;2023-05-07T04:19:46;31.87;;;26.10;;
11113;SDS011;5610;52.154;9.198;2023-05-07T04:22:34;27.40;;;24.50;;
11113;SDS011;5610;52.154;9.198;2023-05-07T04:25:23;31.47;;;24.67;;
11113;SDS011;5610;52.154;9.198;2023-05-07T04:28:11;28.70;;;23.77;;
11113;SDS011;5610;52.154;9.198;2023-05-07T04:30:58;27.27;;;24.37;;
11113;SDS011;5610;52.154;9.198;2023-05-07T04:33:44;27.80;;;24.37;;
11113;SDS011;5610;52.154;9.198;2023-05-07T04:36:31;26.40;;;22.50;;
11113;SDS011;5610;52.154;9.198;2023-05-07T04:39:21;25.23;;;22.50;;
11113;SDS011;5610;52.154;9.198;2023-05-07T04:42:08;24.40;;;21.60;;
11113;SDS011;5610;52.154;9.198;2023-05-07T04:44:54;24.30;;;21.80;;
11113;SDS011;5610;52.154;9.198;2023-05-07T04:47:40;26.50;;;23.17;;
11113;SDS011;5610;52.154;9.198;2023-05-07T04:50:26;25.17;;;22.40;;
11113;SDS011;5610;52.154;9.198;2023-05-07T04:53:15;26.80;;;22.57;;
11113;SDS011;5610;52.154;9.198;2023-05-07T04:56:01;27.47;;;24.47;;
11113;SDS011;5610;52.154;9.198;2023-05-07T04:58:57;25.43;;;21.77;;
11113;SDS011;5610;52.154;9.198;2023-05-07T05:01:43;24.13;;;20.80;;
11113;SDS011;5610;52.154;9.198;2023-05-07T05:04:28;24.40;;;21.87;;
11113;SDS011;5610;52.154;9.198;2023-05-07T05:07:14;24.33;;;21.83;;
11113;SDS011;5610;52.154;9.198;2023-05-07T05:09:59;23.57;;;20.40;;
11113;SDS011;5610;52.154;9.198;2023-05-07T05:12:44;23.37;;;20.97;;
11113;SDS011;5610;52.154;9.198;2023-05-07T05:15:31;22.77;;;20.47;;
11113;SDS011;5610;52.154;9.198;2023-05-07T05:18:16;23.00;;;20.67;;
11113;SDS011;5610;52.154;9.198;2023-05-07T05:21:02;20.77;;;18.67;;
11113;SDS011;5610;52.154;9.198;2023-05-07T05:23:49;22.93;;;19.67;;
11113;SDS011;5610;52.154;9.198;2023-05-07T05:26:37;23.60;;;21.20;;
11113;SDS011;5610;52.154;9.198;2023-05-07T05:29:23;22.17;;;19.53;;
11113;SDS011;5610;52.154;9.198;2023-05-07T05:32:10;22.83;;;19.53;;
11113;SDS011;5610;52.154;9.198;2023-05-07T05:34:56;21.37;;;19.07;;
11113;SDS011;5610;52.154;9.198;2023-05-07T05:37:41;21.70;;;19.50;;
11113;SDS011;5610;52.154;9.198;2023-05-07T05:40:27;22.93;;;20.00;;
11113;SDS011;5610;52.154;9.198;2023-05-07T05:43:13;23.17;;;20.87;;
11113;SDS011;5610;52.154;9.198;2023-05-07T05:45:58;22.83;;;20.47;;
11113;SDS011;5610;52.154;9.198;2023-05-07T05:48:46;25.37;;;21.40;;
11113;SDS011;5610;52.154;9.198;2023-05-07T05:51:31;22.83;;;20.53;;
11113;SDS011;5610;52.154;9.198;2023-05-07T05:54:17;21.13;;;18.73;;
11113;SDS011;5610;52.154;9.198;2023-05-07T05:57:02;21.17;;;18.93;;
11113;SDS011;5610;52.154;9.198;2023-05-07T05:59:48;21.60;;;19.10;;
11113;SDS011;5610;52.154;9.198;2023-05-07T06:02:34;22.00;;;19.87;;
11113;SDS011;5610;52.154;9.198;2023-05-07T06:05:23;20.83;;;18.50;;
11113;SDS011;5610;52.154;9.198;2023-05-07T06:08:10;21.00;;;18.77;;
11113;SDS011;5610;52.154;9.198;2023-05-07T06:10:56;22.70;;;20.30;;
11113;SDS011;5610;52.154;9.198;2023-05-07T06:13:41;21.47;;;18.83;;
11113;SDS011;5610;52.154;9.198;2023-05-07T06:16:26;21.93;;;19.20;;
11113;SDS011;5610;52.154;9.198;2023-05-07T06:19:12;21.27;;;18.80;;
11113;SDS011;5610;52.154;9.198;2023-05-07T06:22:00;20.60;;;18.50;;
11113;SDS011;5610;52.154;9.198;2023-05-07T06:24:47;21.60;;;19.40;;
11113;SDS011;5610;52.154;9.198;2023-05-07T06:27:33;21.93;;;19.63;;
11113;SDS011;5610;52.154;9.198;2023-05-07T06:30:18;26.43;;;20.07;;
11113;SDS011;5610;52.154;9.198;2023-05-07T06:33:04;21.03;;;18.83;;
11113;SDS011;5610;52.154;9.198;2023-05-07T06:35:49;21.03;;;18.77;;
11113;SDS011;5610;52.154;9.198;2023-05-07T06:38:36;21.80;;;19.60;;
11113;SDS011;5610;52.154;9.198;2023-05-07T06:41:21;21.30;;;19.00;;
11113;SDS011;5610;52.154;9.198;2023-05-07T06:44:07;22.80;;;19.57;;
11113;SDS011;5610;52.154;9.198;2023-05-07T06:47:00;22.87;;;20.47;;
11113;SDS011;5610;52.154;9.198;2023-05-07T06:49:46;20.80;;;18.40;;
11113;SDS011;5610;52.154;9.198;2023-05-07T06:52:34;21.97;;;19.67;;
11113;SDS011;5610;52.154;9.198;2023-05-07T06:55:21;20.83;;;18.10;;
11113;SDS011;5610;52.154;9.198;2023-05-07T06:58:06;20.50;;;18.47;;
11113;SDS011;5610;52.154;9.198;2023-05-07T07:00:52;20.30;;;18.07;;
11113;SDS011;5610;52.154;9.198;2023-05-07T07:03:38;21.90;;;18.47;;
11113;SDS011;5610;52.154;9.198;2023-05-07T07:06:23;22.83;;;18.03;;
11113;SDS011;5610;52.154;9.198;2023-05-07T07:09:09;19.70;;;17.70;;
11113;SDS011;5610;52.154;9.198;2023-05-07T07:11:56;21.17;;;19.07;;
11113;SDS011;5610;52.154;9.198;2023-05-07T07:14:41;23.93;;;20.63;;
11113;SDS011;5610;52.154;9.198;2023-05-07T07:17:26;20.43;;;18.33;;
11113;SDS011;5610;52.154;9.198;2023-05-07T07:20:13;21.30;;;17.97;;
11113;SDS011;5610;52.154;9.198;2023-05-07T07:23:00;21.30;;;18.23;;
11113;SDS011;5610;52.154;9.198;2023-05-07T07:25:46;19.60;;;17.57;;
11113;SDS011;5610;52.154;9.198;2023-05-07T07:28:32;19.97;;;17.10;;
11113;SDS011;5610;52.154;9.198;2023-05-07T07:31:18;22.83;;;19.50;;
11113;SDS011;5610;52.154;9.198;2023-05-07T07:34:04;20.50;;;18.30;;
11113;SDS011;5610;52.154;9.198;2023-05-07T07:36:50;19.17;;;17.17;;
11113;SDS011;5610;52.154;9.198;2023-05-07T07:39:36;20.53;;;17.83;;
11113;SDS011;5610;52.154;9.198;2023-05-07T07:42:23;18.20;;;16.10;;
11113;SDS011;5610;52.154;9.198;2023-05-07T07:45:10;21.47;;;18.93;;
11113;SDS011;5610;52.154;9.198;2023-05-07T07:48:00;20.73;;;18.37;;
11113;SDS011;5610;52.154;9.198;2023-05-07T07:50:48;18.73;;;16.57;;
11113;SDS011;5610;52.154;9.198;2023-05-07T07:53:34;20.33;;;17.33;;
11113;SDS011;5610;52.154;9.198;2023-05-07T07:56:20;19.60;;;17.33;;
11113;SDS011;5610;52.154;9.198;2023-05-07T07:59:06;21.17;;;16.80;;
11113;SDS011;5610;52.154;9.198;2023-05-07T08:01:54;19.87;;;17.73;;
11113;SDS011;5610;52.154;9.198;2023-05-07T08:04:40;19.93;;;17.67;;
11113;SDS011;5610;52.154;9.198;2023-05-07T08:07:27;17.83;;;15.93;;
11113;SDS011;5610;52.154;9.198;2023-05-07T08:10:13;17.83;;;16.03;;
11113;SDS011;5610;52.154;9.198;2023-05-07T08:13:05;20.37;;;17.13;;
11113;SDS011;5610;52.154;9.198;2023-05-07T08:15:53;19.63;;;16.97;;
11113;SDS011;5610;52.154;9.198;2023-05-07T08:18:42;19.20;;;17.20;;
11113;SDS011;5610;52.154;9.198;2023-05-07T08:21:27;19.70;;;17.70;;
11113;SDS011;5610;52.154;9.198;2023-05-07T08:24:13;19.03;;;17.13;;
11113;SDS011;5610;52.154;9.198;2023-05-07T08:26:58;19.00;;;16.83;;
11113;SDS011;5610;52.154;9.198;2023-05-07T08:29:44;19.93;;;17.80;;
11113;SDS011;5610;52.154;9.198;2023-05-07T08:32:32;19.80;;;17.80;;
11113;SDS011;5610;52.154;9.198;2023-05-07T08:35:19;18.53;;;16.43;;
11113;SDS011;5610;52.154;9.198;2023-05-07T08:38:04;19.20;;;16.53;;
11113;SDS011;5610;52.154;9.198;2023-05-07T08:40:49;20.23;;;17.87;;
11113;SDS011;5610;52.154;9.198;2023-05-07T08:43:37;19.80;;;15.93;;
11113;SDS011;5610;52.154;9.198;2023-05-07T08:46:25;18.23;;;16.27;;
11113;SDS011;5610;52.154;9.198;2023-05-07T08:49:17;19.23;;;16.77;;
11113;SDS011;5610;52.154;9.198;2023-05-07T08:52:04;18.67;;;16.70;;
11113;SDS011;5610;52.154;9.198;2023-05-07T08:54:51;18.40;;;15.87;;
11113;SDS011;5610;52.154;9.198;2023-05-07T08:57:37;17.30;;;15.50;;
11113;SDS011;5610;52.154;9.198;2023-05-07T09:00:23;18.47;;;16.50;;
11113;SDS011;5610;52.154;9.198;2023-05-07T09:03:10;18.20;;;16.40;;
11113;SDS011;5610;52.154;9.198;2023-05-07T09:05:58;17.73;;;15.90;;
11113;SDS011;5610;52.154;9.198;2023-05-07T09:08:49;16.60;;;15.00;;
11113;SDS011;5610;52.154;9.198;2023-05-07T09:11:36;18.40;;;16.40;;
11113;SDS011;5610;52.154;9.198;2023-05-07T09:14:21;17.33;;;15.20;;
11113;SDS011;5610;52.154;9.198;2023-05-07T09:17:06;16.57;;;14.87;;
11113;SDS011;5610;52.154;9.198;2023-05-07T09:19:52;17.50;;;15.50;;
11113;SDS011;5610;52.154;9.198;2023-05-07T09:22:38;15.87;;;14.20;;
11113;SDS011;5610;52.154;9.198;2023-05-07T09:25:29;16.20;;;14.60;;
11113;SDS011;5610;52.154;9.198;2023-05-07T09:28:18;15.27;;;13.80;;
11113;SDS011;5610;52.154;9.198;2023-05-07T09:31:03;16.80;;;15.10;;
11113;SDS011;5610;52.154;9.198;2023-05-07T09:33:49;17.07;;;15.10;;
11113;SDS011;5610;52.154;9.198;2023-05-07T09:36:35;15.00;;;13.50;;
11113;SDS011;5610;52.154;9.198;2023-05-07T09:39:21;14.40;;;12.90;;
11113;SDS011;5610;52.154;9.198;2023-05-07T09:42:07;15.30;;;13.80;;
11113;SDS011;5610;52.154;9.198;2023-05-07T09:44:54;14.67;;;13.23;;
11113;SDS011;5610;52.154;9.198;2023-05-07T09:47:43;17.77;;;14.37;;
11113;SDS011;5610;52.154;9.198;2023-05-07T09:50:35;15.27;;;13.00;;
11113;SDS011;5610;52.154;9.198;2023-05-07T09:53:21;14.60;;;13.10;;
11113;SDS011;5610;52.154;9.198;2023-05-07T09:56:09;14.87;;;13.27;;
11113;SDS011;5610;52.154;9.198;2023-05-07T09:58:57;15.20;;;13.40;;
11113;SDS011;5610;52.154;9.198;2023-05-07T10:01:47;14.73;;;13.23;;
11113;SDS011;5610;52.154;9.198;2023-05-07T10:04:34;13.00;;;11.70;;
11113;SDS011;5610;52.154;9.198;2023-05-07T10:07:21;13.20;;;11.93;;
11113;SDS011;5610;52.154;9.198;2023-05-07T10:10:09;13.13;;;11.90;;
11113;SDS011;5610;52.154;9.198;2023-05-07T10:13:00;12.90;;;11.60;;
11113;SDS011;5610;52.154;9.198;2023-05-07T10:15:52;12.30;;;11.20;;
11113;SDS011;5610;52.154;9.198;2023-05-07T10:18:41;12.43;;;11.23;;
11113;SDS011;5610;52.154;9.198;2023-05-07T10:21:34;11.33;;;10.33;;
11113;SDS011;5610;52.154;9.198;2023-05-07T10:24:24;13.10;;;11.97;;
11113;SDS011;5610;52.154;9.198;2023-05-07T10:27:11;13.50;;;12.20;;
11113;SDS011;5610;52.154;9.198;2023-05-07T10:30:04;11.37;;;10.30;;
11113;SDS011;5610;52.154;9.198;2023-05-07T10:33:01;11.30;;;10.27;;
11113;SDS011;5610;52.154;9.198;2023-05-07T10:35:51;12.10;;;11.03;;
11113;SDS011;5610;52.154;9.198;2023-05-07T10:38:40;12.40;;;11.37;;
11113;SDS011;5610;52.154;9.198;2023-05-07T10:41:26;13.30;;;12.00;;
11113;SDS011;5610;52.154;9.198;2023-05-07T10:44:11;11.40;;;10.30;;
11113;SDS011;5610;52.154;9.198;2023-05-07T10:47:10;11.30;;;10.30;;
11113;SDS011;5610;52.154;9.198;2023-05-07T10:53:21;11.40;;;10.43;;
11113;SDS011;5610;52.154;9.198;2023-05-07T10:56:24;12.47;;;11.37;;
11113;SDS011;5610;52.154;9.198;2023-05-07T10:59:30;11.97;;;10.80;;
11113;SDS011;5610;52.154;9.198;2023-05-07T11:06:15;11.27;;;10.37;;
11113;SDS011;5610;52.154;9.198;2023-05-07T11:09:12;11.43;;;10.43;;
11113;SDS011;5610;52.154;9.198;2023-05-07T11:12:08;12.10;;;10.90;;
11113;SDS011;5610;52.154;9.198;2023-05-07T11:15:08;11.20;;;10.20;;
11113;SDS011;5610;52.154;9.198;2023-05-07T11:17:56;12.00;;;10.93;;
11113;SDS011;5610;52.154;9.198;2023-05-07T11:20:50;11.33;;;10.43;;
11113;SDS011;5610;52.154;9.198;2023-05-07T11:23:59;11.20;;;10.20;;
11113;SDS011;5610;52.154;9.198;2023-05-07T11:27:14;10.87;;;9.97;;
11113;SDS011;5610;52.154;9.198;2023-05-07T11:29:59;10.87;;;9.97;;
11113;SDS011;5610;52.154;9.198;2023-05-07T11:32:47;11.37;;;10.47;;
11113;SDS011;5610;52.154;9.198;2023-05-07T11:35:34;11.27;;;10.27;;
11113;SDS011;5610;52.154;9.198;2023-05-07T11:38:20;10.57;;;9.67;;
11113;SDS011;5610;52.154;9.198;2023-05-07T11:41:07;11.07;;;10.17;;
11113;SDS011;5610;52.154;9.198;2023-05-07T11:43:54;10.83;;;9.83;;
11113;SDS011;5610;52.154;9.198;2023-05-07T11:46:42;9.90;;;9.10;;
11113;SDS011;5610;52.154;9.198;2023-05-07T11:49:27;10.23;;;9.43;;
11113;SDS011;5610;52.154;9.198;2023-05-07T11:52:13;11.50;;;10.30;;
11113;SDS011;5610;52.154;9.198;2023-05-07T11:54:59;11.40;;;10.30;;
11113;SDS011;5610;52.154;9.198;2023-05-07T11:57:45;9.57;;;8.87;;
11113;SDS011;5610;52.154;9.198;2023-05-07T12:00:31;10.33;;;9.43;;
11113;SDS011;5610;52.154;9.198;2023-05-07T12:03:16;10.67;;;9.87;;
11113;SDS011;5610;52.154;9.198;2023-05-07T12:06:02;9.83;;;9.03;;
11113;SDS011;5610;52.154;9.198;2023-05-07T12:08:47;9.37;;;8.57;;
11113;SDS011;5610;52.154;9.198;2023-05-07T12:11:33;9.23;;;8.43;;
11113;SDS011;5610;52.154;9.198;2023-05-07T12:14:20;9.50;;;8.60;;
11113;SDS011;5610;52.154;9.198;2023-05-07T12:17:05;10.20;;;9.40;;
11113;SDS011;5610;52.154;9.198;2023-05-07T12:19:51;9.43;;;8.73;;
11113;SDS011;5610;52.154;9.198;2023-05-07T12:22:37;9.93;;;9.03;;
11113;SDS011;5610;52.154;9.198;2023-05-07T12:25:23;8.90;;;8.20;;
11113;SDS011;5610;52.154;9.198;2023-05-07T12:28:08;10.60;;;9.63;;
11113;SDS011;5610;52.154;9.198;2023-05-07T12:30:59;9.47;;;8.77;;
11113;SDS011;5610;52.154;9.198;2023-05-07T12:33:44;10.07;;;9.17;;
11113;SDS011;5610;52.154;9.198;2023-05-07T12:36:36;9.13;;;8.33;;
11113;SDS011;5610;52.154;9.198;2023-05-07T12:39:22;9.10;;;8.40;;
11113;SDS011;5610;52.154;9.198;2023-05-07T12:42:07;10.30;;;9.53;;
11113;SDS011;5610;52.154;9.198;2023-05-07T12:44:53;10.03;;;9.23;;
11113;SDS011;5610;52.154;9.198;2023-05-07T12:47:39;9.33;;;8.63;;
11113;SDS011;5610;52.154;9.198;2023-05-07T12:50:30;9.67;;;8.97;;
11113;SDS011;5610;52.154;9.198;2023-05-07T12:53:17;8.63;;;8.03;;
11113;SDS011;5610;52.154;9.198;2023-05-07T12:56:05;10.20;;;9.40;;
11113;SDS011;5610;52.154;9.198;2023-05-07T12:58:51;9.70;;;8.80;;
11113;SDS011;5610;52.154;9.198;2023-05-07T13:01:43;11.47;;;10.60;;
11113;SDS011;5610;52.154;9.198;2023-05-07T13:04:30;10.37;;;9.57;;
11113;SDS011;5610;52.154;9.198;2023-05-07T13:07:16;10.37;;;9.60;;
11113;SDS011;5610;52.154;9.198;2023-05-07T13:10:01;9.33;;;8.63;;
11113;SDS011;5610;52.154;9.198;2023-05-07T13:12:46;9.47;;;8.77;;
11113;SDS011;5610;52.154;9.198;2023-05-07T13:15:32;9.20;;;8.50;;
11113;SDS011;5610;52.154;9.198;2023-05-07T13:18:17;9.47;;;8.77;;
11113;SDS011;5610;52.154;9.198;2023-05-07T13:21:04;10.07;;;9.27;;
11113;SDS011;5610;52.154;9.198;2023-05-07T13:23:49;9.80;;;9.00;;
11113;SDS011;5610;52.154;9.198;2023-05-07T13:26:34;9.10;;;8.27;;
11113;SDS011;5610;52.154;9.198;2023-05-07T13:29:19;8.97;;;8.27;;
11113;SDS011;5610;52.154;9.198;2023-05-07T13:32:05;9.00;;;8.30;;
11113;SDS011;5610;52.154;9.198;2023-05-07T13:34:50;9.90;;;9.10;;
11113;SDS011;5610;52.154;9.198;2023-05-07T13:37:36;9.83;;;9.07;;
11113;SDS011;5610;52.154;9.198;2023-05-07T13:40:22;9.53;;;8.83;;
11113;SDS011;5610;52.154;9.198;2023-05-07T13:43:07;9.93;;;8.90;;
11113;SDS011;5610;52.154;9.198;2023-05-07T13:45:53;9.60;;;8.60;;
11113;SDS011;5610;52.154;9.198;2023-05-07T13:48:38;8.03;;;7.23;;
11113;SDS011;5610;52.154;9.198;2023-05-07T13:51:23;9.60;;;8.80;;
11113;SDS011;5610;52.154;9.198;2023-05-07T13:54:10;9.63;;;8.77;;
11113;SDS011;5610;52.154;9.198;2023-05-07T13:56:55;8.47;;;7.87;;
11113;SDS011;5610;52.154;9.198;2023-05-07T13:59:40;8.73;;;7.90;;
11113;SDS011;5610;52.154;9.198;2023-05-07T14:02:26;8.10;;;7.50;;
11113;SDS011;5610;52.154;9.198;2023-05-07T14:05:11;8.40;;;7.67;;
11113;SDS011;5610;52.154;9.198;2023-05-07T14:07:57;8.67;;;7.97;;
11113;SDS011;5610;52.154;9.198;2023-05-07T14:10:44;7.77;;;7.17;;
11113;SDS011;5610;52.154;9.198;2023-05-07T14:13:30;7.40;;;6.90;;
11113;SDS011;5610;52.154;9.198;2023-05-07T14:16:15;8.40;;;7.80;;
11113;SDS011;5610;52.154;9.198;2023-05-07T14:19:00;7.93;;;7.33;;
11113;SDS011;5610;52.154;9.198;2023-05-07T14:21:45;7.80;;;7.20;;
11113;SDS011;5610;52.154;9.198;2023-05-07T14:24:30;8.67;;;7.97;;
11113;SDS011;5610;52.154;9.198;2023-05-07T14:27:16;8.07;;;7.47;;
11113;SDS011;5610;52.154;9.198;2023-05-07T14:30:02;9.00;;;8.30;;
11113;SDS011;5610;52.154;9.198;2023-05-07T14:32:47;8.73;;;8.13;;
11113;SDS011;5610;52.154;9.198;2023-05-07T14:35:32;8.00;;;7.40;;
11113;SDS011;5610;52.154;9.198;2023-05-07T14:38:17;8.23;;;7.57;;
11113;SDS011;5610;52.154;9.198;2023-05-07T14:41:03;8.27;;;7.60;;
11113;SDS011;5610;52.154;9.198;2023-05-07T14:43:49;8.90;;;8.30;;
11113;SDS011;5610;52.154;9.198;2023-05-07T14:46:35;7.90;;;7.30;;
11113;SDS011;5610;52.154;9.198;2023-05-07T14:49:20;8.97;;;8.17;;
11113;SDS011;5610;52.154;9.198;2023-05-07T14:52:05;9.30;;;8.60;;
11113;SDS011;5610;52.154;9.198;2023-05-07T14:54:52;8.63;;;7.93;;
11113;SDS011;5610;52.154;9.198;2023-05-07T14:57:37;9.43;;;8.43;;
11113;SDS011;5610;52.154;9.198;2023-05-07T15:00:24;10.03;;;9.20;;
11113;SDS011;5610;52.154;9.198;2023-05-07T15:03:09;9.53;;;8.63;;
11113;SDS011;5610;52.154;9.198;2023-05-07T15:05:58;10.50;;;8.63;;
11113;SDS011;5610;52.154;9.198;2023-05-07T15:08:44;9.37;;;8.60;;
11113;SDS011;5610;52.154;9.198;2023-05-07T15:11:29;9.90;;;9.10;;
11113;SDS011;5610;52.154;9.198;2023-05-07T15:14:14;9.60;;;8.70;;
11113;SDS011;5610;52.154;9.198;2023-05-07T15:17:01;10.23;;;9.53;;
11113;SDS011;5610;52.154;9.198;2023-05-07T15:19:46;10.63;;;9.90;;
11113;SDS011;5610;52.154;9.198;2023-05-07T15:22:31;11.87;;;9.73;;
11113;SDS011;5610;52.154;9.198;2023-05-07T15:25:17;11.00;;;10.17;;
11113;SDS011;5610;52.154;9.198;2023-05-07T15:28:02;11.83;;;10.97;;
11113;SDS011;5610;52.154;9.198;2023-05-07T15:30:48;11.50;;;10.50;;
11113;SDS011;5610;52.154;9.198;2023-05-07T15:33:35;10.93;;;10.13;;
11113;SDS011;5610;52.154;9.198;2023-05-07T15:36:20;11.30;;;10.40;;
11113;SDS011;5610;52.154;9.198;2023-05-07T15:39:06;11.80;;;10.90;;
11113;SDS011;5610;52.154;9.198;2023-05-07T15:41:51;11.30;;;10.37;;
11113;SDS011;5610;52.154;9.198;2023-05-07T15:44:36;12.00;;;11.20;;
11113;SDS011;5610;52.154;9.198;2023-05-07T15:47:22;11.33;;;10.43;;
11113;SDS011;5610;52.154;9.198;2023-05-07T15:50:08;10.57;;;9.87;;
11113;SDS011;5610;52.154;9.198;2023-05-07T15:52:54;11.37;;;10.47;;
11113;SDS011;5610;52.154;9.198;2023-05-07T15:55:41;10.97;;;10.17;;
11113;SDS011;5610;52.154;9.198;2023-05-07T15:58:27;11.17;;;10.27;;
11113;SDS011;5610;52.154;9.198;2023-05-07T16:01:12;11.63;;;10.83;;
11113;SDS011;5610;52.154;9.198;2023-05-07T16:03:57;11.53;;;10.73;;
11113;SDS011;5610;52.154;9.198;2023-05-07T16:06:44;11.73;;;10.87;;
11113;SDS011;5610;52.154;9.198;2023-05-07T16:09:30;11.10;;;10.30;;
11113;SDS011;5610;52.154;9.198;2023-05-07T16:12:15;10.93;;;10.13;;
11113;SDS011;5610;52.154;9.198;2023-05-07T16:15:01;12.60;;;11.53;;
11113;SDS011;5610;52.154;9.198;2023-05-07T16:17:47;12.10;;;11.20;;
11113;SDS011;5610;52.154;9.198;2023-05-07T16:20:34;13.73;;;12.63;;
11113;SDS011;5610;52.154;9.198;2023-05-07T16:23:20;12.67;;;11.70;;
11113;SDS011;5610;52.154;9.198;2023-05-07T16:26:05;13.20;;;12.00;;
11113;SDS011;5610;52.154;9.198;2023-05-07T16:28:51;13.27;;;12.27;;
11113;SDS011;5610;52.154;9.198;2023-05-07T16:31:36;13.00;;;11.90;;
11113;SDS011;5610;52.154;9.198;2023-05-07T16:34:21;12.73;;;11.73;;
11113;SDS011;5610;52.154;9.198;2023-05-07T16:37:07;14.57;;;13.33;;
11113;SDS011;5610;52.154;9.198;2023-05-07T16:39:53;14.57;;;13.47;;
11113;SDS011;5610;52.154;9.198;2023-05-07T16:42:39;14.00;;;13.00;;
11113;SDS011;5610;52.154;9.198;2023-05-07T16:45:24;13.20;;;12.10;;